Time;durP1;ratioP1;P1;durP2;ratioP2;P2;SDS_P1;SDS_P2;PMS_P1;PMS_P2;Temp;Humidity;BMP_temperature;BMP_pressure;BME280_temperature;BME280_humidity;BME280_pressure;Samples;Min_cycle;Max_cycle;Signal;HPM_P1;HPM_P2
2023/01/22 00:03:44;;;;;;;;;18.50;15.75;;;;;2.07;63.23;102443.81;5095723;27;45704;-80
2023/01/22 00:06:10;;;;;;;;;17.50;17.50;;;;;2.08;63.48;102447.28;5095822;27;45851;-78
2023/01/22 00:08:36;;;;;;;;;32.00;24.00;;;;;2.09;63.08;102443.81;5095975;27;45568;-82
2023/01/22 00:11:03;;;;;;;;;37.50;28.00;;;;;2.08;63.48;102436.94;5096446;27;45934;-79
2023/01/22 00:13:28;;;;;;;;;36.75;27.00;;;;;2.07;63.26;102430.03;5095538;27;45545;-78
2023/01/22 00:19:15;;;;;;;;;25.25;23.25;;;;;1.99;62.82;102429.25;5095828;27;46031;-75
2023/01/22 00:21:41;;;;;;;;;36.00;30.33;;;;;2.01;62.97;102428.34;5095874;27;47087;-77
2023/01/22 00:24:06;;;;;;;;;32.25;25.50;;;;;2.02;63.28;102431.78;5095069;27;46135;-77
2023/01/22 00:26:32;;;;;;;;;37.75;27.00;;;;;1.94;63.61;102424.13;5095282;27;45843;-77
2023/01/22 00:28:57;;;;;;;;;34.00;27.00;;;;;2.00;63.35;102436.09;5095056;27;47338;-78
2023/01/22 00:34:50;;;;;;;;;32.00;23.00;;;;;2.04;63.38;102427.50;5094876;27;45958;-78
2023/01/22 00:37:16;;;;;;;;;31.00;30.50;;;;;2.03;63.21;102425.75;5094990;27;45877;-75
2023/01/22 00:39:41;;;;;;;;;39.00;28.50;;;;;2.08;63.05;102424.00;5094807;27;46618;-79
2023/01/22 00:42:06;;;;;;;;;37.50;32.00;;;;;2.11;63.09;102432.59;5094202;27;46256;-75
2023/01/22 00:44:32;;;;;;;;;32.75;24.50;;;;;2.13;62.96;102419.66;5094770;27;45663;-81
2023/01/22 00:46:57;;;;;;;;;38.50;28.25;;;;;2.10;63.06;102422.28;5095005;27;45658;-79
2023/01/22 00:49:22;;;;;;;;;35.25;24.75;;;;;2.11;63.23;102434.31;5094693;27;46525;-80
2023/01/22 00:51:48;;;;;;;;;38.75;24.50;;;;;2.10;62.59;102430.03;5094965;27;45795;-79
2023/01/22 00:54:13;;;;;;;;;43.50;31.00;;;;;2.09;63.28;102421.41;5094711;27;45521;-79
2023/01/22 00:56:40;;;;;;;;;31.00;27.00;;;;;2.06;63.18;102412.81;5095174;27;45603;-79
2023/01/22 00:59:09;;;;;;;;;31.00;21.50;;;;;2.13;63.22;102411.03;5094995;27;45710;-79
2023/01/22 01:04:56;;;;;;;;;39.75;26.75;;;;;2.15;62.86;102409.31;5094524;27;45587;-80
2023/01/22 01:07:22;;;;;;;;;34.25;27.00;;;;;2.13;63.07;102419.66;5095236;27;45706;-78
2023/01/22 01:09:47;;;;;;;;;34.25;28.50;;;;;2.17;62.84;102416.19;5095192;27;47218;-79
2023/01/22 01:12:13;;;;;;;;;36.00;22.50;;;;;2.15;62.74;102404.16;5111135;27;46058;-79
2023/01/22 01:14:38;;;;;;;;;37.00;29.33;;;;;2.14;62.98;102395.53;5096080;27;45738;-76
2023/01/22 01:20:25;;;;;;;;;29.50;24.75;;;;;2.11;62.76;102398.97;5094472;27;45616;-75
2023/01/22 01:22:50;;;;;;;;;32.75;25.75;;;;;2.05;63.38;102393.84;5094201;27;47060;-77
2023/01/22 01:25:16;;;;;;;;;28.50;20.50;;;;;2.08;62.96;102411.09;5094315;27;45582;-80
2023/01/22 01:27:41;;;;;;;;;38.75;27.00;;;;;2.10;62.81;102414.53;5094766;27;45741;-80
2023/01/22 01:30:07;;;;;;;;;37.00;30.25;;;;;2.09;63.34;102405.03;5094530;27;45723;-78
2023/01/22 01:32:32;;;;;;;;;34.50;26.75;;;;;2.07;62.95;102412.81;5094564;27;46582;-78
2023/01/22 01:34:59;;;;;;;;;32.50;29.75;;;;;2.07;62.98;102420.56;5094312;27;45525;-78
2023/01/22 01:37:24;;;;;;;;;38.00;30.75;;;;;2.07;63.23;102428.31;5094367;27;45714;-79
2023/01/22 01:39:51;;;;;;;;;34.00;28.25;;;;;2.07;63.09;102427.44;5110028;27;46424;-77
2023/01/22 01:42:30;;;;;;;;;38.50;27.75;;;;;2.01;63.46;102415.44;5093961;27;46049;-77
2023/01/22 01:51:39;;;;;;;;;36.00;26.00;;;;;2.08;62.97;102418.84;5094828;27;45502;-80
2023/01/22 01:54:05;;;;;;;;;43.75;28.25;;;;;2.09;63.21;102421.41;5097261;27;46207;-81
2023/01/22 01:56:38;;;;;;;;;30.25;26.00;;;;;2.07;63.19;102428.31;5098765;27;45839;-83
2023/01/22 01:59:07;;;;;;;;;37.00;27.00;;;;;2.01;63.02;102410.25;5099792;27;45533;-80
2023/01/22 02:01:33;;;;;;;;;29.75;27.25;;;;;1.88;63.05;102405.19;5098953;27;45698;-81
2023/01/22 02:03:59;;;;;;;;;39.25;31.00;;;;;1.96;63.39;102411.16;5098436;27;46108;-81
2023/01/22 02:06:25;;;;;;;;;41.50;32.00;;;;;1.98;63.06;102407.72;5098058;27;45601;-77
2023/01/22 02:08:52;;;;;;;;;35.50;27.25;;;;;1.97;63.02;102403.41;5097941;27;45606;-75
2023/01/22 02:11:19;;;;;;;;;44.50;30.50;;;;;1.99;63.41;102414.59;5097492;27;45514;-76
2023/01/22 02:13:50;;;;;;;;;26.00;20.75;;;;;1.97;63.32;102402.53;5097286;27;45618;-75
2023/01/22 02:16:15;;;;;;;;;33.00;28.75;;;;;2.00;62.96;102407.69;5097654;27;45827;-79
2023/01/22 02:18:40;;;;;;;;;33.25;25.50;;;;;1.99;63.32;102414.59;5097288;27;45560;-79
2023/01/22 02:21:38;;;;;;;;;30.50;26.75;;;;;1.98;63.05;102422.34;5097315;27;45563;-76
2023/01/22 02:24:07;;;;;;;;;29.50;24.25;;;;;1.97;63.24;102425.81;5097472;27;45942;-77
2023/01/22 02:26:33;;;;;;;;;37.00;31.50;;;;;1.92;62.97;102414.63;5097498;27;45614;-75
2023/01/22 02:28:59;;;;;;;;;33.75;23.25;;;;;1.93;62.97;102422.38;5097454;27;45886;-80
2023/01/22 02:31:24;;;;;;;;;34.75;26.50;;;;;1.94;63.66;102418.09;5096570;27;45568;-80
2023/01/22 02:33:50;;;;;;;;;36.25;31.25;;;;;1.96;63.03;102412.03;5096870;27;46435;-80
2023/01/22 02:36:15;;;;;;;;;37.75;25.00;;;;;1.92;63.17;102412.06;5097132;27;45574;-79
2023/01/22 02:38:41;;;;;;;;;33.75;26.75;;;;;1.99;62.91;102430.09;5096970;27;45742;-79
2023/01/22 02:41:07;;;;;;;;;34.00;25.00;;;;;1.97;62.88;102411.16;5097317;27;46386;-81
2023/01/22 02:43:33;;;;;;;;;31.75;26.00;;;;;1.99;63.30;102411.16;5097088;27;46235;-76
2023/01/22 02:45:58;;;;;;;;;39.50;35.00;;;;;2.00;62.85;102416.28;5079447;27;45690;-81
2023/01/22 02:51:47;;;;;;;;;36.00;28.00;;;;;2.02;62.85;102417.16;5096863;27;46148;-79
2023/01/22 02:54:12;;;;;;;;;33.50;26.00;;;;;2.03;63.19;102418.00;5078452;27;46574;-77
2023/01/22 02:56:37;;;;;;;;;36.25;25.75;;;;;2.03;63.03;102413.69;5097100;27;45624;-79
2023/01/22 02:59:03;;;;;;;;;37.50;30.75;;;;;2.01;62.48;102420.59;5096669;27;45521;-80
2023/01/22 03:01:29;;;;;;;;;35.25;26.75;;;;;1.85;62.41;102392.28;5096493;27;46143;-78
2023/01/22 03:07:17;;;;;;;;;37.00;28.50;;;;;1.92;62.94;102428.41;5096238;27;45778;-79
2023/01/22 03:09:44;;;;;;;;;40.25;33.00;;;;;1.93;63.28;102421.53;5096564;27;45527;-80
2023/01/22 03:12:10;;;;;;;;;34.50;31.00;;;;;1.88;63.21;102408.63;5096157;27;47398;-77
2023/01/22 03:22:47;;;;;;;;;25.50;17.00;;;;;1.91;63.07;102413.78;5095989;27;46127;-76
2023/01/22 03:25:13;;;;;;;;;41.00;33.50;;;;;1.95;63.02;102419.78;5095958;27;47013;-80
2023/01/22 03:28:07;;;;;;;;;47.75;37.50;;;;;1.95;63.16;102415.47;5096304;27;46174;-78
2023/01/22 03:30:25;;;;;;;;;47.75;36.25;;;;;1.95;63.35;102417.19;5096630;27;45856;-75
2023/01/22 03:32:50;;;;;;;;;33.25;27.25;;;;;1.90;62.96;102408.59;5095799;27;47537;-76
2023/01/22 03:35:15;;;;;;;;;39.33;27.00;;;;;1.81;63.03;102395.75;5096412;27;46088;-76
2023/01/22 03:37:41;;;;;;;;;41.50;33.75;;;;;1.91;63.45;102410.31;5097188;27;45544;-78
2023/01/22 03:40:07;;;;;;;;;34.75;27.25;;;;;1.92;62.51;102409.47;5097194;27;45727;-78
2023/01/22 03:42:32;;;;;;;;;36.00;27.75;;;;;1.85;63.26;102413.81;5097433;27;46587;-75
2023/01/22 03:44:57;;;;;;;;;37.00;31.00;;;;;1.84;62.81;102401.75;5097090;27;45715;-78
2023/01/22 03:47:22;;;;;;;;;46.00;33.33;;;;;1.86;62.87;102409.50;5096538;27;45709;-79
2023/01/22 03:49:48;;;;;;;;;42.33;35.00;;;;;1.85;62.84;102411.22;5096139;27;45753;-81
2023/01/22 03:52:13;;;;;;;;;37.25;32.50;;;;;1.83;62.87;102412.97;5096112;27;46289;-77
2023/01/22 03:54:38;;;;;;;;;33.25;29.75;;;;;1.87;62.91;102421.56;5077815;27;46127;-76
2023/01/22 03:57:04;;;;;;;;;29.50;29.00;;;;;1.89;62.48;102433.59;5096020;27;45652;-76
2023/01/22 03:59:29;;;;;;;;;37.50;29.50;;;;;1.89;63.12;102425.84;5096555;27;45846;-74
2023/01/22 04:01:54;;;;;;;;;39.75;25.75;;;;;1.91;63.43;102420.66;5095904;27;46450;-76
2023/01/22 04:07:41;;;;;;;;;36.75;28.00;;;;;1.87;62.97;102403.47;5095565;27;45797;-78
2023/01/22 04:10:07;;;;;;;;;32.33;24.00;;;;;1.93;62.48;102413.78;5095793;27;45865;-77
2023/01/22 04:12:33;;;;;;;;;29.50;23.25;;;;;1.82;62.97;102397.47;5095564;27;46623;-77
2023/01/22 04:14:58;;;;;;;;;37.50;24.25;;;;;1.93;62.89;102412.06;5094221;27;45792;-79
2023/01/22 04:17:24;;;;;;;;;38.00;27.25;;;;;1.93;62.67;102412.06;5095110;27;45579;-74
2023/01/22 04:23:11;;;;;;;;;26.50;20.75;;;;;1.92;63.03;102399.13;5095170;27;45564;-72
2023/01/22 04:25:36;;;;;;;;;26.75;23.50;;;;;1.96;63.24;102400.81;5076942;27;48462;-75
2023/01/22 04:28:02;;;;;;;;;40.50;31.50;;;;;1.95;63.23;102404.25;5095947;27;45484;-82
2023/01/22 04:30:28;;;;;;;;;30.75;22.00;;;;;1.97;63.26;102389.63;5095833;27;45694;-75
2023/01/22 04:32:53;;;;;;;;;38.00;31.00;;;;;1.98;63.21;102399.09;5095357;27;47999;-80
2023/01/22 04:38:40;;;;;;;;;40.50;25.25;;;;;1.98;63.22;102397.38;5094975;27;45504;-74
2023/01/22 04:41:06;;;;;;;;;42.25;25.00;;;;;1.98;63.08;102406.84;5095400;27;45904;-76
2023/01/22 04:43:31;;;;;;;;;33.25;27.25;;;;;1.77;63.33;102365.66;5095388;27;46416;-76
2023/01/22 04:45:57;;;;;;;;;27.75;25.75;;;;;1.97;63.03;102389.63;5095434;27;46257;-74
2023/01/22 04:48:22;;;;;;;;;34.75;27.50;;;;;1.97;63.20;102387.03;5096317;27;45790;-74
2023/01/22 04:50:47;;;;;;;;;36.00;26.25;;;;;1.89;62.76;102369.00;5095057;27;45560;-74
2023/01/22 04:53:13;;;;;;;;;33.50;26.25;;;;;1.90;63.02;102383.63;5094789;27;46266;-77
2023/01/22 04:55:40;;;;;;;;;36.50;29.50;;;;;1.90;63.19;102375.88;5093590;27;46148;-76
2023/01/22 04:58:07;;;;;;;;;29.00;24.50;;;;;1.84;63.36;102369.88;5094334;27;45750;-76
2023/01/22 05:00:33;;;;;;;;;28.00;22.00;;;;;1.71;63.09;102339.84;5094620;27;45851;-76
2023/01/22 05:03:00;;;;;;;;;30.75;27.00;;;;;1.84;63.06;102372.47;5093097;27;45871;-76
2023/01/22 05:08:47;;;;;;;;;27.00;24.50;;;;;1.73;62.60;102366.53;5094278;27;45841;-76
2023/01/22 05:11:13;;;;;;;;;25.00;17.50;;;;;1.78;62.29;102382.88;5094418;27;45912;-74
2023/01/22 05:13:38;;;;;;;;;27.75;26.25;;;;;1.79;63.41;102376.81;5094114;27;46586;-76
2023/01/22 05:16:05;;;;;;;;;27.50;21.25;;;;;1.79;63.17;102377.66;5094563;27;46121;-76
2023/01/22 05:18:30;;;;;;;;;18.25;15.00;;;;;1.79;62.68;102379.41;5094423;27;45539;-75
2023/01/22 05:20:55;;;;;;;;;30.50;26.00;;;;;1.78;63.00;102367.38;5095071;27;45533;-75
2023/01/22 05:23:22;;;;;;;;;36.25;24.25;;;;;1.78;62.55;102372.53;5076688;27;48251;-75
2023/01/22 05:25:48;;;;;;;;;23.25;20.75;;;;;1.81;62.57;102363.03;5076538;27;46520;-76
2023/01/22 05:28:13;;;;;;;;;21.75;16.00;;;;;1.82;63.03;102363.88;5093879;27;45654;-75
2023/01/22 05:30:39;;;;;;;;;31.67;23.33;;;;;1.83;63.24;102358.72;5094797;27;45506;-75
2023/01/22 05:33:04;;;;;;;;;29.00;26.50;;;;;1.79;62.75;102359.59;5092730;27;46320;-74
2023/01/22 05:35:29;;;;;;;;;27.00;20.00;;;;;1.86;63.07;102365.56;5094020;27;46539;-75
2023/01/22 05:37:55;;;;;;;;;25.50;21.00;;;;;1.84;63.28;102356.97;5094319;27;45736;-75
2023/01/22 05:40:20;;;;;;;;;23.75;20.50;;;;;1.88;62.39;102363.84;5094393;27;45958;-76
2023/01/22 05:42:46;;;;;;;;;27.25;23.50;;;;;1.92;62.95;102373.28;5093973;27;46293;-76
2023/01/22 05:45:11;;;;;;;;;28.00;23.00;;;;;1.91;63.24;102364.69;5094428;27;46078;-74
2023/01/22 05:47:36;;;;;;;;;31.25;19.00;;;;;1.90;63.35;102365.53;5094096;27;46171;-76
2023/01/22 05:50:02;;;;;;;;;33.25;21.50;;;;;1.94;63.18;102377.59;5094117;27;45812;-74
2023/01/22 05:52:27;;;;;;;;;30.50;25.00;;;;;1.96;63.04;102362.06;5093776;27;46260;-75
2023/01/22 05:54:53;;;;;;;;;28.00;24.75;;;;;1.95;62.83;102355.16;5093580;27;46016;-75
2023/01/22 05:57:18;;;;;;;;;29.00;24.00;;;;;1.98;63.22;102360.34;5093682;27;45810;-76
2023/01/22 05:59:44;;;;;;;;;25.00;24.25;;;;;1.91;63.28;102340.56;5094366;27;45665;-76
2023/01/22 06:02:10;;;;;;;;;26.75;25.25;;;;;1.96;63.43;102349.13;5094168;27;45625;-75
2023/01/22 06:04:35;;;;;;;;;26.00;20.25;;;;;1.97;63.44;102363.78;5094019;27;47153;-75
2023/01/22 06:07:01;;;;;;;;;25.25;18.50;;;;;2.01;63.09;102362.88;5093730;27;45756;-79
2023/01/22 06:09:26;;;;;;;;;21.25;13.00;;;;;1.97;62.96;102356.03;5093918;27;45556;-78
2023/01/22 06:11:52;;;;;;;;;25.00;23.50;;;;;1.95;63.69;102344.81;5094631;27;46302;-77
2023/01/22 06:14:17;;;;;;;;;31.00;21.50;;;;;2.03;63.09;102366.31;5076693;27;45703;-76
2023/01/22 06:16:42;;;;;;;;;27.50;23.25;;;;;2.03;63.43;102377.50;5093995;27;45822;-78
2023/01/22 06:19:21;;;;;;;;;25.00;21.50;;;;;2.03;63.46;102369.75;5094282;27;45607;-76
2023/01/22 06:25:08;;;;;;;;;25.50;22.00;;;;;2.02;63.21;102362.00;5093600;27;45623;-78
2023/01/22 06:27:37;;;;;;;;;29.25;25.25;;;;;2.09;63.87;102384.38;5093607;27;45541;-79
2023/01/22 06:30:03;;;;;;;;;29.00;18.25;;;;;2.09;63.23;102369.72;5093943;27;45537;-78
2023/01/22 06:32:28;;;;;;;;;27.25;22.00;;;;;2.10;63.85;102357.66;5093813;27;47788;-79
2023/01/22 06:34:53;;;;;;;;;25.50;21.25;;;;;2.04;63.49;102342.19;5093640;27;45641;-80
2023/01/22 06:37:20;;;;;;;;;29.25;20.00;;;;;2.14;63.48;102367.09;5093231;27;45579;-76
2023/01/22 06:39:45;;;;;;;;;28.75;24.00;;;;;2.15;63.62;102362.78;5096188;27;45680;-80
2023/01/22 06:42:11;;;;;;;;;30.00;22.00;;;;;2.16;64.09;102365.34;5096836;27;45725;-79
2023/01/22 06:44:36;;;;;;;;;32.25;25.00;;;;;2.14;63.76;102376.56;5078323;27;47198;-80
2023/01/22 06:47:01;;;;;;;;;27.00;25.00;;;;;2.12;63.53;102371.41;5097151;27;45748;-80
2023/01/22 06:49:27;;;;;;;;;31.25;21.00;;;;;2.11;63.91;102367.97;5096910;27;45503;-81
2023/01/22 06:55:14;;;;;;;;;33.00;25.50;;;;;2.18;63.49;102373.09;5094317;27;45987;-78
2023/01/22 06:57:40;;;;;;;;;32.75;23.50;;;;;2.18;63.78;102391.19;5097256;27;45516;-75
2023/01/22 07:00:07;;;;;;;;;31.50;27.00;;;;;2.16;63.69;102383.44;5097156;27;45823;-79
2023/01/22 07:02:32;;;;;;;;;40.50;25.50;;;;;2.15;63.71;102386.91;5096693;27;47469;-75
2023/01/22 07:04:58;;;;;;;;;30.00;27.00;;;;;2.19;63.94;102392.91;5096355;27;45599;-76
2023/01/22 07:10:45;;;;;;;;;32.75;26.00;;;;;2.21;64.40;102394.63;5096773;27;45560;-76
2023/01/22 07:13:10;;;;;;;;;27.25;23.50;;;;;2.15;64.45;102384.31;5096433;27;46778;-79
2023/01/22 07:15:35;;;;;;;;;28.00;21.50;;;;;2.21;64.20;102402.38;5096541;27;46073;-80
2023/01/22 07:18:01;;;;;;;;;33.75;29.50;;;;;2.14;64.38;102376.56;5096400;27;46012;-80
2023/01/22 07:20:26;;;;;;;;;33.00;28.00;;;;;2.25;64.34;102410.97;5096472;27;45865;-80
2023/01/22 07:26:14;;;;;;;;;30.75;21.75;;;;;2.21;64.38;102412.72;5096556;27;45966;-81
2023/01/22 07:28:40;;;;;;;;;34.00;23.50;;;;;2.18;64.74;102419.63;5095930;27;45587;-76
2023/01/22 07:31:09;;;;;;;;;35.50;28.00;;;;;2.18;64.76;102417.03;5096415;27;45486;-79
2023/01/22 07:33:34;;;;;;;;;27.00;24.00;;;;;2.19;65.22;102426.50;5096430;27;47241;-77
2023/01/22 07:35:59;;;;;;;;;30.75;25.50;;;;;2.18;64.79;102419.63;5095471;27;46948;-75
2023/01/22 07:38:30;;;;;;;;;34.25;24.25;;;;;2.21;64.99;102427.38;5096478;27;45537;-76
2023/01/22 07:41:00;;;;;;;;;29.50;22.00;;;;;2.11;65.43;102430.00;5096224;27;45811;-75
2023/01/22 07:43:26;;;;;;;;;26.75;22.50;;;;;2.17;65.42;102423.06;5095892;27;46262;-76
2023/01/22 07:45:51;;;;;;;;;23.50;19.25;;;;;2.12;64.98;102417.94;5096241;27;45691;-76
2023/01/22 07:48:16;;;;;;;;;23.00;22.25;;;;;2.16;64.92;102427.38;5095931;27;45703;-78
2023/01/22 07:50:42;;;;;;;;;31.25;21.50;;;;;2.17;64.92;102425.66;5111429;27;45668;-74
2023/01/22 07:56:29;;;;;;;;;29.50;24.25;;;;;2.17;65.20;102418.75;5084834;27;45802;-77
2023/01/22 07:58:54;;;;;;;;;25.25;20.50;;;;;2.16;65.24;102419.63;5096044;27;45836;-76
2023/01/22 08:01:20;;;;;;;;;32.33;25.00;;;;;2.23;65.21;102442.00;5095926;27;45701;-78
2023/01/22 08:03:45;;;;;;;;;24.75;21.00;;;;;2.22;65.28;102416.13;5096287;27;45645;-77
2023/01/22 08:12:19;;;;;;;;;28.50;23.50;;;;;2.29;64.99;102449.69;5095336;27;45682;-77
2023/01/22 08:14:44;;;;;;;;;22.00;20.75;;;;;2.29;65.41;102449.69;5096023;27;46660;-75
2023/01/22 08:17:10;;;;;;;;;25.33;21.00;;;;;2.31;65.46;102441.94;5095933;27;46144;-78
2023/01/22 08:19:35;;;;;;;;;28.00;25.00;;;;;2.02;65.29;102398.19;5095449;27;45670;-72
2023/01/22 08:22:00;;;;;;;;;26.50;22.50;;;;;2.24;65.06;102442.84;5095643;27;45638;-74
2023/01/22 08:24:26;;;;;;;;;29.00;21.25;;;;;2.36;65.36;102455.69;5095189;27;46546;-73
2023/01/22 08:26:51;;;;;;;;;29.25;18.75;;;;;2.34;65.16;102452.25;5095129;27;46128;-73
2023/01/22 08:29:16;;;;;;;;;30.75;21.75;;;;;2.37;65.30;102458.28;5094785;27;45700;-71
2023/01/22 08:31:42;;;;;;;;;25.50;21.00;;;;;2.36;65.30;102451.38;5095169;27;45860;-72
2023/01/22 08:34:07;;;;;;;;;27.50;22.00;;;;;2.38;65.14;102464.28;5094829;27;46394;-71
2023/01/22 08:36:33;;;;;;;;;26.25;20.75;;;;;2.39;64.73;102453.94;5094633;27;46054;-72
2023/01/22 08:42:20;;;;;;;;;27.00;22.00;;;;;2.40;65.18;102467.72;5094936;27;45626;-71
2023/01/22 08:44:45;;;;;;;;;31.00;21.25;;;;;2.42;65.08;102466.84;5094725;27;46529;-72
2023/01/22 08:47:11;;;;;;;;;28.00;21.50;;;;;2.46;65.39;102463.38;5095444;27;46176;-73
2023/01/22 08:49:36;;;;;;;;;23.50;18.50;;;;;2.50;65.06;102462.47;5095069;27;45646;-72
2023/01/22 08:52:02;;;;;;;;;30.25;27.00;;;;;2.55;65.11;102472.78;5095279;27;45775;-74
2023/01/22 08:54:27;;;;;;;;;31.00;21.75;;;;;2.60;65.09;102470.16;5095139;27;45582;-73
2023/01/22 08:56:52;;;;;;;;;23.00;21.00;;;;;2.63;64.60;102467.56;5094490;27;46050;-71
2023/01/22 08:59:18;;;;;;;;;16.75;13.50;;;;;2.59;64.51;102458.97;5094447;27;45535;-72
2023/01/22 09:01:43;;;;;;;;;29.00;21.75;;;;;2.58;64.53;102464.16;5093859;27;45850;-73
2023/01/22 09:04:09;;;;;;;;;19.00;15.75;;;;;2.61;64.58;102477.03;5094431;27;45645;-72
2023/01/22 09:06:36;;;;;;;;;24.25;16.50;;;;;2.63;64.81;102473.59;5094452;27;47337;-72
2023/01/22 09:12:23;;;;;;;;;22.50;18.75;;;;;2.67;64.57;102474.41;5094679;27;45632;-73
2023/01/22 09:14:48;;;;;;;;;31.00;24.25;;;;;2.67;64.42;102470.09;5094314;27;47147;-72
2023/01/22 09:17:14;;;;;;;;;27.25;21.00;;;;;2.72;64.56;102472.63;5094289;27;45705;-72
2023/01/22 09:19:39;;;;;;;;;27.75;24.00;;;;;2.72;64.15;102457.97;5094594;27;45596;-74
2023/01/22 09:22:06;;;;;;;;;20.00;14.50;;;;;2.74;64.48;102457.97;5095305;27;45665;-73
2023/01/22 09:27:59;;;;;;;;;25.00;20.00;;;;;2.75;64.24;102459.69;5094344;27;46182;-72
2023/01/22 09:30:27;;;;;;;;;13.25;9.75;;;;;2.76;64.40;102458.78;5076487;27;45694;-73
2023/01/22 09:32:52;;;;;;;;;22.50;18.00;;;;;2.82;64.15;102464.78;5094012;27;45700;-72
2023/01/22 09:35:17;;;;;;;;;25.00;18.25;;;;;2.84;63.93;102469.94;5110476;27;47329;-71
2023/01/22 09:37:43;;;;;;;;;26.25;18.25;;;;;2.80;64.19;102458.78;5094317;27;45544;-72
2023/01/22 09:40:24;;;;;;;;;24.00;21.00;;;;;2.78;63.62;102470.00;5094553;27;45597;-80
2023/01/22 09:42:51;;;;;;;;;24.50;19.50;;;;;2.86;64.23;102475.97;5096030;27;45596;-78
2023/01/22 09:45:20;;;;;;;;;24.75;18.50;;;;;2.95;63.88;102489.69;5095136;27;45961;-82
2023/01/22 09:47:50;;;;;;;;;24.25;20.50;;;;;2.91;63.56;102485.41;5094038;27;46351;-76
2023/01/22 09:50:30;;;;;;;;;26.75;19.50;;;;;2.96;63.87;102480.19;5094964;27;45676;-75
2023/01/22 09:59:55;;;;;;;;;23.00;14.75;;;;;2.98;63.77;102499.13;5094907;27;46141;-76
2023/01/22 10:02:28;;;;;;;;;15.75;9.50;;;;;2.96;63.83;102503.50;5095638;27;45503;-77
2023/01/22 10:05:23;;;;;;;;;26.25;21.50;;;;;2.92;63.76;102487.09;5095057;27;45554;-78
2023/01/22 10:14:35;;;;;;;;;21.00;19.00;;;;;2.96;63.55;102495.72;5052843;28;45854;-75
2023/01/22 10:17:02;;;;;;;;;12.00;12.00;;;;;2.77;63.73;102463.09;5055406;28;45607;-78
2023/01/22 10:19:52;;;;;;;;;22.50;20.25;;;;;2.97;63.48;102496.59;5038719;28;46623;-76
2023/01/22 10:22:21;;;;;;;;;21.75;20.50;;;;;2.95;63.90;102500.03;5043688;28;46253;-77
2023/01/22 10:24:47;;;;;;;;;15.25;12.75;;;;;2.86;63.96;102478.56;5054918;28;45884;-76
2023/01/22 10:27:19;;;;;;;;;30.75;21.75;;;;;2.85;63.92;102469.94;5071721;27;45602;-77
2023/01/22 10:29:58;;;;;;;;;24.00;21.25;;;;;2.91;63.87;102502.69;5054645;28;46716;-75
2023/01/22 10:32:26;;;;;;;;;26.00;21.00;;;;;2.82;64.21;102467.38;5053909;28;46111;-77
2023/01/22 10:35:04;;;;;;;;;22.00;18.75;;;;;2.96;64.29;102475.03;5054639;28;45633;-76
2023/01/22 10:37:30;;;;;;;;;21.50;14.25;;;;;2.97;64.26;102477.56;5057084;27;45855;-75
2023/01/22 10:39:58;;;;;;;;;29.25;21.75;;;;;3.03;64.26;102483.56;5053894;28;47459;-75
2023/01/22 10:42:28;;;;;;;;;20.00;15.75;;;;;2.45;64.01;102396.13;5053818;28;46966;-78
2023/01/22 10:45:10;;;;;;;;;18.75;15.75;;;;;2.93;63.79;102464.66;5053924;28;45863;-76
2023/01/22 10:47:36;;;;;;;;;16.00;13.50;;;;;2.77;63.76;102437.22;5057617;27;45569;-77
2023/01/22 10:50:06;;;;;;;;;21.50;19.00;;;;;2.85;64.09;102449.25;5078704;27;46635;-75
2023/01/22 10:52:55;;;;;;;;;20.25;17.00;;;;;3.04;63.30;102480.09;5096858;27;46315;-76
2023/01/22 10:55:24;;;;;;;;;15.25;12.00;;;;;2.83;64.03;102447.53;5096803;27;45806;-77
2023/01/22 10:58:04;;;;;;;;;21.25;18.25;;;;;2.86;63.99;102447.50;5078030;27;45799;-75
2023/01/22 11:00:34;;;;;;;;;25.00;20.00;;;;;3.00;63.88;102468.94;5096756;27;45519;-76
2023/01/22 11:03:11;;;;;;;;;23.25;15.50;;;;;2.81;63.41;102444.06;5096639;27;46083;-75
2023/01/22 11:05:41;;;;;;;;;24.75;17.00;;;;;3.05;63.55;102480.09;5096898;27;45614;-76
2023/01/22 11:08:14;;;;;;;;;17.00;15.50;;;;;2.86;63.67;102448.34;5096838;27;45646;-76
2023/01/22 11:11:00;;;;;;;;;22.00;18.00;;;;;3.00;63.76;102449.94;5096719;27;45575;-75
2023/01/22 11:13:41;;;;;;;;;22.50;17.75;;;;;3.14;63.78;102476.53;5096657;27;46393;-75
2023/01/22 11:16:15;;;;;;;;;20.00;13.50;;;;;3.08;63.61;102448.97;5096499;27;45660;-77
2023/01/22 11:19:02;;;;;;;;;19.00;17.75;;;;;2.95;63.93;102430.16;5097124;27;45705;-76
2023/01/22 11:21:32;;;;;;;;;16.25;15.00;;;;;3.16;63.37;102467.91;5097211;27;45665;-78
2023/01/22 11:27:24;;;;;;;;;18.50;15.50;;;;;3.17;63.18;102464.44;5096859;27;45767;-76
2023/01/22 11:30:08;;;;;;;;;22.50;18.50;;;;;3.14;63.40;102463.59;5079089;27;45655;-76
2023/01/22 11:32:40;;;;;;;;;21.50;16.00;;;;;3.14;63.58;102456.69;5097268;27;45620;-75
2023/01/22 11:35:32;;;;;;;;;22.50;19.50;;;;;3.14;63.24;102446.34;5097681;27;45611;-76
2023/01/22 11:38:15;;;;;;;;;17.25;14.00;;;;;3.16;63.22;102444.59;5097387;27;45586;-77
2023/01/22 11:44:13;;;;;;;;;21.50;18.00;;;;;3.17;63.23;102464.44;5097417;27;46155;-76
2023/01/22 11:46:39;;;;;;;;;19.50;15.25;;;;;3.17;63.32;102448.91;5097188;27;45712;-74
2023/01/22 11:49:34;;;;;;;;;17.25;15.50;;;;;3.16;63.33;102446.31;5112105;27;45747;-75
2023/01/22 11:52:36;;;;;;;;;17.75;15.00;;;;;3.23;63.36;102437.63;5096575;27;45575;-79
2023/01/22 11:55:46;;;;;;;;;12.00;12.00;;;;;3.24;63.34;102442.75;5096220;27;45598;-76
2023/01/22 11:58:41;;;;;;;;;19.50;15.25;;;;;3.21;63.65;102437.63;5096384;27;46258;-73
2023/01/22 12:01:47;;;;;;;;;6.75;3.50;;;;;3.28;63.64;102428.94;5054575;28;45671;-74
2023/01/22 12:04:38;;;;;;;;;13.75;13.00;;;;;3.29;63.24;102416.84;5054820;28;45733;-74
2023/01/22 12:07:22;;;;;;;;;21.50;18.00;;;;;3.37;63.41;102423.63;5053026;28;46939;-71
2023/01/22 12:09:50;;;;;;;;;18.75;15.25;;;;;3.42;63.20;102412.34;5052971;28;45674;-72
2023/01/22 12:12:34;;;;;;;;;21.75;18.25;;;;;3.47;62.98;102416.59;5052626;28;45935;-72
2023/01/22 12:15:02;;;;;;;;;20.00;17.50;;;;;3.51;63.17;102409.66;5052963;28;45961;-72
2023/01/22 12:17:42;;;;;;;;;23.00;19.25;;;;;3.52;63.29;102413.94;5052353;28;47319;-72
2023/01/22 12:20:22;;;;;;;;;21.00;16.50;;;;;3.54;62.99;102412.19;5035227;28;47511;-72
2023/01/22 12:23:00;;;;;;;;;22.00;19.75;;;;;3.56;63.10;102411.31;5052377;28;45765;-71
2023/01/22 12:25:43;;;;;;;;;29.75;19.25;;;;;3.59;62.86;102407.81;5052812;28;45616;-73
2023/01/22 12:28:27;;;;;;;;;13.75;10.50;;;;;3.54;63.07;102400.09;5052652;28;45849;-72
2023/01/22 12:31:11;;;;;;;;;19.25;16.50;;;;;3.59;62.82;102406.06;5052360;28;46236;-73
2023/01/22 12:33:40;;;;;;;;;20.75;18.75;;;;;3.56;62.73;102393.19;5052790;28;45783;-70
2023/01/22 12:36:12;;;;;;;;;22.50;18.75;;;;;3.59;62.71;102393.13;5051750;28;45855;-75
2023/01/22 12:38:47;;;;;;;;;16.50;14.25;;;;;3.51;62.85;102386.34;5083438;27;47367;-73
2023/01/22 12:41:22;;;;;;;;;16.50;14.25;;;;;3.57;62.85;102392.28;5110867;27;47615;-72
2023/01/22 12:44:05;;;;;;;;;19.00;16.00;;;;;3.58;63.02;102387.94;5110868;27;45851;-75
2023/01/22 12:46:57;;;;;;;;;23.50;18.00;;;;;3.59;62.92;102381.91;5110514;27;45947;-72
2023/01/22 12:49:25;;;;;;;;;17.25;13.75;;;;;3.59;62.55;102377.56;5110639;27;47230;-72
2023/01/22 12:51:53;;;;;;;;;13.50;11.00;;;;;3.61;62.61;102393.09;5110905;27;46291;-72
2023/01/22 12:54:21;;;;;;;;;19.75;16.00;;;;;3.62;62.77;102384.44;5094314;27;45458;-72
2023/01/22 12:56:49;;;;;;;;;14.00;10.00;;;;;3.62;62.73;102387.03;5094951;27;45649;-71
2023/01/22 12:59:43;;;;;;;;;18.25;14.00;;;;;3.62;63.00;102385.28;5094847;27;46576;-72
2023/01/22 13:02:37;;;;;;;;;14.25;8.75;;;;;3.63;62.48;102383.56;5094635;27;45748;-71
2023/01/22 13:05:17;;;;;;;;;12.75;10.50;;;;;3.64;62.53;102373.19;5094856;27;45838;-72
2023/01/22 13:07:43;;;;;;;;;12.75;10.00;;;;;3.65;62.52;102371.44;5094853;27;45583;-73
2023/01/22 13:10:18;;;;;;;;;17.50;14.50;;;;;3.65;62.26;102377.50;5095317;27;46824;-70